sensor_id;sensor_type;location;lat;lon;timestamp;P1;durP1;ratioP1;P2;durP2;ratioP2
50689;SDS011;54375;48.298;11.238;2022-09-24T00:00:31;10.80;;;8.02;;
50689;SDS011;54375;48.298;11.238;2022-09-24T00:03:33;10.23;;;7.57;;
50689;SDS011;54375;48.298;11.238;2022-09-24T00:06:35;9.32;;;6.60;;
50689;SDS011;54375;48.298;11.238;2022-09-24T00:09:39;7.82;;;6.05;;
50689;SDS011;54375;48.298;11.238;2022-09-24T00:12:40;8.20;;;6.07;;
50689;SDS011;54375;48.298;11.238;2022-09-24T00:15:42;9.75;;;6.95;;
50689;SDS011;54375;48.298;11.238;2022-09-24T00:18:46;8.90;;;6.78;;
50689;SDS011;54375;48.298;11.238;2022-09-24T00:21:47;8.30;;;5.80;;
50689;SDS011;54375;48.298;11.238;2022-09-24T00:24:48;7.30;;;5.22;;
50689;SDS011;54375;48.298;11.238;2022-09-24T00:27:49;8.45;;;5.80;;
50689;SDS011;54375;48.298;11.238;2022-09-24T00:30:49;11.00;;;7.50;;
50689;SDS011;54375;48.298;11.238;2022-09-24T00:33:52;12.48;;;9.35;;
50689;SDS011;54375;48.298;11.238;2022-09-24T00:36:53;11.23;;;7.78;;
50689;SDS011;54375;48.298;11.238;2022-09-24T00:39:54;9.57;;;7.47;;
50689;SDS011;54375;48.298;11.238;2022-09-24T00:42:55;11.73;;;8.30;;
50689;SDS011;54375;48.298;11.238;2022-09-24T00:45:56;10.30;;;6.78;;
50689;SDS011;54375;48.298;11.238;2022-09-24T00:49:04;8.60;;;6.05;;
50689;SDS011;54375;48.298;11.238;2022-09-24T00:52:11;7.45;;;5.25;;
50689;SDS011;54375;48.298;11.238;2022-09-24T00:55:12;9.43;;;6.18;;
50689;SDS011;54375;48.298;11.238;2022-09-24T00:58:14;8.82;;;5.07;;
50689;SDS011;54375;48.298;11.238;2022-09-24T01:01:16;7.38;;;5.00;;
50689;SDS011;54375;48.298;11.238;2022-09-24T01:04:19;6.70;;;5.13;;
50689;SDS011;54375;48.298;11.238;2022-09-24T01:07:20;6.70;;;4.88;;
50689;SDS011;54375;48.298;11.238;2022-09-24T01:10:22;6.50;;;4.53;;
50689;SDS011;54375;48.298;11.238;2022-09-24T01:13:32;6.45;;;4.53;;
50689;SDS011;54375;48.298;11.238;2022-09-24T01:16:44;7.35;;;5.05;;
50689;SDS011;54375;48.298;11.238;2022-09-24T01:23:50;6.07;;;4.47;;
50689;SDS011;54375;48.298;11.238;2022-09-24T01:27:03;8.02;;;5.70;;
50689;SDS011;54375;48.298;11.238;2022-09-24T01:30:12;7.63;;;5.57;;
50689;SDS011;54375;48.298;11.238;2022-09-24T01:33:15;7.93;;;5.95;;
50689;SDS011;54375;48.298;11.238;2022-09-24T01:36:20;13.90;;;8.25;;
50689;SDS011;54375;48.298;11.238;2022-09-24T01:39:23;10.18;;;7.03;;
50689;SDS011;54375;48.298;11.238;2022-09-24T01:42:26;10.18;;;8.00;;
50689;SDS011;54375;48.298;11.238;2022-09-24T01:45:31;8.48;;;6.45;;
50689;SDS011;54375;48.298;11.238;2022-09-24T01:48:34;9.07;;;6.43;;
50689;SDS011;54375;48.298;11.238;2022-09-24T01:51:37;8.60;;;5.82;;
50689;SDS011;54375;48.298;11.238;2022-09-24T01:54:45;8.20;;;5.70;;
50689;SDS011;54375;48.298;11.238;2022-09-24T01:57:50;6.97;;;5.10;;
50689;SDS011;54375;48.298;11.238;2022-09-24T02:00:55;6.75;;;4.70;;
50689;SDS011;54375;48.298;11.238;2022-09-24T02:04:04;6.00;;;4.47;;
50689;SDS011;54375;48.298;11.238;2022-09-24T02:07:13;6.25;;;4.60;;
50689;SDS011;54375;48.298;11.238;2022-09-24T02:10:19;7.47;;;4.93;;
50689;SDS011;54375;48.298;11.238;2022-09-24T02:13:20;5.97;;;4.65;;
50689;SDS011;54375;48.298;11.238;2022-09-24T02:16:27;7.10;;;4.68;;
50689;SDS011;54375;48.298;11.238;2022-09-24T02:19:33;6.38;;;4.50;;
50689;SDS011;54375;48.298;11.238;2022-09-24T02:22:36;7.35;;;5.38;;
50689;SDS011;54375;48.298;11.238;2022-09-24T02:25:40;8.13;;;5.07;;
50689;SDS011;54375;48.298;11.238;2022-09-24T02:28:43;7.20;;;4.55;;
50689;SDS011;54375;48.298;11.238;2022-09-24T02:31:45;6.95;;;4.90;;
50689;SDS011;54375;48.298;11.238;2022-09-24T02:34:49;7.75;;;5.30;;
50689;SDS011;54375;48.298;11.238;2022-09-24T02:37:52;7.72;;;5.78;;
50689;SDS011;54375;48.298;11.238;2022-09-24T02:40:53;6.60;;;5.03;;
50689;SDS011;54375;48.298;11.238;2022-09-24T02:43:54;8.93;;;5.40;;
50689;SDS011;54375;48.298;11.238;2022-09-24T02:46:57;8.05;;;5.20;;
50689;SDS011;54375;48.298;11.238;2022-09-24T02:52:58;8.40;;;5.53;;
50689;SDS011;54375;48.298;11.238;2022-09-24T02:55:59;8.32;;;6.18;;
50689;SDS011;54375;48.298;11.238;2022-09-24T02:59:00;7.65;;;5.45;;
50689;SDS011;54375;48.298;11.238;2022-09-24T03:02:02;9.18;;;5.82;;
50689;SDS011;54375;48.298;11.238;2022-09-24T03:08:04;8.55;;;6.47;;
50689;SDS011;54375;48.298;11.238;2022-09-24T03:11:05;7.78;;;6.30;;
50689;SDS011;54375;48.298;11.238;2022-09-24T03:14:05;10.00;;;6.72;;
50689;SDS011;54375;48.298;11.238;2022-09-24T03:17:08;8.80;;;5.95;;
50689;SDS011;54375;48.298;11.238;2022-09-24T03:23:09;8.05;;;5.43;;
50689;SDS011;54375;48.298;11.238;2022-09-24T03:26:10;7.93;;;5.95;;
50689;SDS011;54375;48.298;11.238;2022-09-24T03:29:11;8.40;;;6.30;;
50689;SDS011;54375;48.298;11.238;2022-09-24T03:32:13;8.70;;;5.95;;
50689;SDS011;54375;48.298;11.238;2022-09-24T03:38:15;6.80;;;5.30;;
50689;SDS011;54375;48.298;11.238;2022-09-24T03:41:15;7.45;;;5.82;;
50689;SDS011;54375;48.298;11.238;2022-09-24T03:44:17;9.63;;;7.00;;
50689;SDS011;54375;48.298;11.238;2022-09-24T03:47:19;8.25;;;5.68;;
50689;SDS011;54375;48.298;11.238;2022-09-24T03:53:20;7.05;;;5.60;;
50689;SDS011;54375;48.298;11.238;2022-09-24T03:56:21;8.15;;;6.47;;
50689;SDS011;54375;48.298;11.238;2022-09-24T03:59:22;8.50;;;5.43;;
50689;SDS011;54375;48.298;11.238;2022-09-24T04:02:24;7.90;;;5.80;;
50689;SDS011;54375;48.298;11.238;2022-09-24T04:05:25;7.38;;;5.72;;
50689;SDS011;54375;48.298;11.238;2022-09-24T04:08:26;10.80;;;7.00;;
50689;SDS011;54375;48.298;11.238;2022-09-24T04:11:27;9.40;;;6.00;;
50689;SDS011;54375;48.298;11.238;2022-09-24T04:14:27;9.50;;;6.45;;
50689;SDS011;54375;48.298;11.238;2022-09-24T04:17:29;7.97;;;5.20;;
50689;SDS011;54375;48.298;11.238;2022-09-24T04:20:30;8.10;;;5.97;;
50689;SDS011;54375;48.298;11.238;2022-09-24T04:23:31;6.50;;;5.10;;
50689;SDS011;54375;48.298;11.238;2022-09-24T04:26:32;6.90;;;5.15;;
50689;SDS011;54375;48.298;11.238;2022-09-24T04:29:33;8.00;;;6.32;;
50689;SDS011;54375;48.298;11.238;2022-09-24T04:32:35;9.50;;;6.22;;
50689;SDS011;54375;48.298;11.238;2022-09-24T04:35:35;8.45;;;5.65;;
50689;SDS011;54375;48.298;11.238;2022-09-24T04:38:36;7.82;;;5.90;;
50689;SDS011;54375;48.298;11.238;2022-09-24T04:41:37;8.15;;;5.25;;
50689;SDS011;54375;48.298;11.238;2022-09-24T04:44:38;6.20;;;4.90;;
50689;SDS011;54375;48.298;11.238;2022-09-24T04:47:40;7.47;;;4.93;;
50689;SDS011;54375;48.298;11.238;2022-09-24T04:53:41;9.25;;;5.85;;
50689;SDS011;54375;48.298;11.238;2022-09-24T04:56:42;10.65;;;6.82;;
50689;SDS011;54375;48.298;11.238;2022-09-24T04:59:43;15.07;;;7.90;;
50689;SDS011;54375;48.298;11.238;2022-09-24T05:02:45;11.18;;;7.05;;
50689;SDS011;54375;48.298;11.238;2022-09-24T05:05:46;7.55;;;6.03;;
50689;SDS011;54375;48.298;11.238;2022-09-24T05:08:47;10.75;;;6.93;;
50689;SDS011;54375;48.298;11.238;2022-09-24T05:11:48;9.05;;;6.00;;
50689;SDS011;54375;48.298;11.238;2022-09-24T05:14:48;6.75;;;5.32;;
50689;SDS011;54375;48.298;11.238;2022-09-24T05:17:50;9.52;;;7.00;;
50689;SDS011;54375;48.298;11.238;2022-09-24T05:20:51;7.32;;;5.43;;
50689;SDS011;54375;48.298;11.238;2022-09-24T05:23:52;8.27;;;6.35;;
50689;SDS011;54375;48.298;11.238;2022-09-24T05:26:53;9.00;;;5.53;;
50689;SDS011;54375;48.298;11.238;2022-09-24T05:29:53;7.65;;;5.50;;
50689;SDS011;54375;48.298;11.238;2022-09-24T05:32:55;10.45;;;5.50;;
50689;SDS011;54375;48.298;11.238;2022-09-24T05:38:57;9.57;;;5.85;;
50689;SDS011;54375;48.298;11.238;2022-09-24T05:41:58;8.48;;;5.25;;
50689;SDS011;54375;48.298;11.238;2022-09-24T05:44:58;8.65;;;6.22;;
50689;SDS011;54375;48.298;11.238;2022-09-24T05:48:00;6.45;;;4.82;;
50689;SDS011;54375;48.298;11.238;2022-09-24T05:51:01;8.70;;;6.05;;
50689;SDS011;54375;48.298;11.238;2022-09-24T05:54:03;13.68;;;8.52;;
50689;SDS011;54375;48.298;11.238;2022-09-24T05:57:04;13.25;;;8.75;;
50689;SDS011;54375;48.298;11.238;2022-09-24T06:00:05;11.82;;;8.73;;
50689;SDS011;54375;48.298;11.238;2022-09-24T06:03:09;9.55;;;7.68;;
50689;SDS011;54375;48.298;11.238;2022-09-24T06:06:11;9.45;;;7.55;;
50689;SDS011;54375;48.298;11.238;2022-09-24T06:09:13;11.75;;;9.43;;
50689;SDS011;54375;48.298;11.238;2022-09-24T06:12:14;12.85;;;10.10;;
50689;SDS011;54375;48.298;11.238;2022-09-24T06:15:14;16.63;;;11.68;;
50689;SDS011;54375;48.298;11.238;2022-09-24T06:18:16;17.80;;;13.25;;
50689;SDS011;54375;48.298;11.238;2022-09-24T06:21:17;16.88;;;12.73;;
50689;SDS011;54375;48.298;11.238;2022-09-24T06:24:18;20.40;;;14.95;;
50689;SDS011;54375;48.298;11.238;2022-09-24T06:27:19;15.50;;;12.02;;
50689;SDS011;54375;48.298;11.238;2022-09-24T06:30:19;14.77;;;12.60;;
50689;SDS011;54375;48.298;11.238;2022-09-24T06:33:21;24.88;;;15.55;;
50689;SDS011;54375;48.298;11.238;2022-09-24T06:36:22;21.85;;;17.73;;
50689;SDS011;54375;48.298;11.238;2022-09-24T06:39:23;20.67;;;13.93;;
50689;SDS011;54375;48.298;11.238;2022-09-24T06:42:24;17.83;;;11.95;;
50689;SDS011;54375;48.298;11.238;2022-09-24T06:45:24;15.43;;;10.97;;
50689;SDS011;54375;48.298;11.238;2022-09-24T06:48:27;13.35;;;9.02;;
50689;SDS011;54375;48.298;11.238;2022-09-24T06:51:28;11.98;;;8.50;;
50689;SDS011;54375;48.298;11.238;2022-09-24T06:54:29;10.73;;;7.53;;
50689;SDS011;54375;48.298;11.238;2022-09-24T06:57:30;10.93;;;8.45;;
50689;SDS011;54375;48.298;11.238;2022-09-24T07:00:30;10.33;;;7.37;;
50689;SDS011;54375;48.298;11.238;2022-09-24T07:03:33;9.85;;;7.05;;
50689;SDS011;54375;48.298;11.238;2022-09-24T07:06:34;11.02;;;7.45;;
50689;SDS011;54375;48.298;11.238;2022-09-24T07:09:35;12.27;;;8.00;;
50689;SDS011;54375;48.298;11.238;2022-09-24T07:12:35;12.87;;;8.57;;
50689;SDS011;54375;48.298;11.238;2022-09-24T07:15:36;13.83;;;8.03;;
50689;SDS011;54375;48.298;11.238;2022-09-24T07:18:38;9.15;;;6.35;;
50689;SDS011;54375;48.298;11.238;2022-09-24T07:21:39;12.00;;;8.55;;
50689;SDS011;54375;48.298;11.238;2022-09-24T07:24:40;7.67;;;6.10;;
50689;SDS011;54375;48.298;11.238;2022-09-24T07:27:40;11.40;;;7.55;;
50689;SDS011;54375;48.298;11.238;2022-09-24T07:30:41;11.30;;;7.77;;
50689;SDS011;54375;48.298;11.238;2022-09-24T07:33:43;11.27;;;8.17;;
50689;SDS011;54375;48.298;11.238;2022-09-24T07:39:44;9.52;;;7.22;;
50689;SDS011;54375;48.298;11.238;2022-09-24T07:42:45;12.60;;;8.83;;
50689;SDS011;54375;48.298;11.238;2022-09-24T07:45:46;9.88;;;7.32;;
50689;SDS011;54375;48.298;11.238;2022-09-24T07:48:48;11.27;;;8.20;;
50689;SDS011;54375;48.298;11.238;2022-09-24T07:51:51;35.17;;;22.90;;
50689;SDS011;54375;48.298;11.238;2022-09-24T07:54:52;30.05;;;21.77;;
50689;SDS011;54375;48.298;11.238;2022-09-24T07:57:54;16.30;;;12.23;;
50689;SDS011;54375;48.298;11.238;2022-09-24T08:03:57;9.88;;;7.38;;
50689;SDS011;54375;48.298;11.238;2022-09-24T08:06:58;11.23;;;6.82;;
50689;SDS011;54375;48.298;11.238;2022-09-24T08:09:59;13.93;;;9.13;;
50689;SDS011;54375;48.298;11.238;2022-09-24T08:13:00;15.10;;;8.80;;
50689;SDS011;54375;48.298;11.238;2022-09-24T08:16:01;12.57;;;8.07;;
50689;SDS011;54375;48.298;11.238;2022-09-24T08:19:04;14.18;;;8.80;;
50689;SDS011;54375;48.298;11.238;2022-09-24T08:22:05;12.25;;;6.80;;
50689;SDS011;54375;48.298;11.238;2022-09-24T08:25:06;11.98;;;8.45;;
50689;SDS011;54375;48.298;11.238;2022-09-24T08:28:08;9.80;;;7.55;;
50689;SDS011;54375;48.298;11.238;2022-09-24T08:31:09;9.85;;;7.15;;
50689;SDS011;54375;48.298;11.238;2022-09-24T08:34:13;9.65;;;6.03;;
50689;SDS011;54375;48.298;11.238;2022-09-24T08:37:13;8.52;;;5.80;;
50689;SDS011;54375;48.298;11.238;2022-09-24T08:40:15;10.40;;;6.10;;
50689;SDS011;54375;48.298;11.238;2022-09-24T08:43:23;9.80;;;6.63;;
50689;SDS011;54375;48.298;11.238;2022-09-24T08:46:37;12.77;;;7.00;;
50689;SDS011;54375;48.298;11.238;2022-09-24T08:49:44;11.63;;;6.97;;
50689;SDS011;54375;48.298;11.238;2022-09-24T08:52:52;11.30;;;6.32;;
50689;SDS011;54375;48.298;11.238;2022-09-24T08:56:02;7.43;;;5.43;;
50689;SDS011;54375;48.298;11.238;2022-09-24T08:59:08;9.40;;;6.32;;
50689;SDS011;54375;48.298;11.238;2022-09-24T09:02:20;9.35;;;6.30;;
50689;SDS011;54375;48.298;11.238;2022-09-24T09:05:42;9.35;;;6.10;;
50689;SDS011;54375;48.298;11.238;2022-09-24T09:08:52;8.10;;;5.80;;
50689;SDS011;54375;48.298;11.238;2022-09-24T09:12:03;8.23;;;6.27;;
50689;SDS011;54375;48.298;11.238;2022-09-24T09:15:10;9.18;;;6.50;;
50689;SDS011;54375;48.298;11.238;2022-09-24T09:18:15;8.55;;;6.15;;
50689;SDS011;54375;48.298;11.238;2022-09-24T09:21:25;9.35;;;6.35;;
50689;SDS011;54375;48.298;11.238;2022-09-24T09:24:33;7.78;;;5.35;;
50689;SDS011;54375;48.298;11.238;2022-09-24T09:27:40;9.90;;;6.22;;
50689;SDS011;54375;48.298;11.238;2022-09-24T09:30:43;10.70;;;6.20;;
50689;SDS011;54375;48.298;11.238;2022-09-24T09:33:55;7.72;;;5.97;;
50689;SDS011;54375;48.298;11.238;2022-09-24T09:37:12;8.15;;;6.10;;
50689;SDS011;54375;48.298;11.238;2022-09-24T09:40:24;8.57;;;6.07;;
50689;SDS011;54375;48.298;11.238;2022-09-24T09:43:30;8.18;;;5.88;;
50689;SDS011;54375;48.298;11.238;2022-09-24T09:46:32;8.20;;;6.03;;
50689;SDS011;54375;48.298;11.238;2022-09-24T09:49:37;9.38;;;6.70;;
50689;SDS011;54375;48.298;11.238;2022-09-24T09:52:40;9.68;;;6.90;;
50689;SDS011;54375;48.298;11.238;2022-09-24T09:55:41;8.98;;;6.25;;
50689;SDS011;54375;48.298;11.238;2022-09-24T09:58:43;11.53;;;6.60;;
50689;SDS011;54375;48.298;11.238;2022-09-24T10:01:45;9.02;;;6.20;;
50689;SDS011;54375;48.298;11.238;2022-09-24T10:04:50;10.73;;;5.97;;
50689;SDS011;54375;48.298;11.238;2022-09-24T10:07:55;7.78;;;5.88;;
50689;SDS011;54375;48.298;11.238;2022-09-24T10:10:57;9.77;;;6.28;;
50689;SDS011;54375;48.298;11.238;2022-09-24T10:14:01;12.05;;;6.97;;
50689;SDS011;54375;48.298;11.238;2022-09-24T10:17:03;9.00;;;6.20;;
50689;SDS011;54375;48.298;11.238;2022-09-24T10:20:06;12.17;;;8.07;;
50689;SDS011;54375;48.298;11.238;2022-09-24T10:23:14;9.15;;;6.85;;
50689;SDS011;54375;48.298;11.238;2022-09-24T10:26:19;9.70;;;6.93;;
50689;SDS011;54375;48.298;11.238;2022-09-24T10:29:20;9.67;;;7.00;;
50689;SDS011;54375;48.298;11.238;2022-09-24T10:32:24;13.25;;;8.00;;
50689;SDS011;54375;48.298;11.238;2022-09-24T10:35:26;10.55;;;7.43;;
50689;SDS011;54375;48.298;11.238;2022-09-24T10:38:30;8.98;;;6.90;;
50689;SDS011;54375;48.298;11.238;2022-09-24T10:41:31;8.98;;;6.65;;
50689;SDS011;54375;48.298;11.238;2022-09-24T10:44:33;8.90;;;6.47;;
50689;SDS011;54375;48.298;11.238;2022-09-24T10:47:36;9.82;;;7.35;;
50689;SDS011;54375;48.298;11.238;2022-09-24T10:50:44;8.00;;;6.38;;
50689;SDS011;54375;48.298;11.238;2022-09-24T10:53:53;8.13;;;6.10;;
50689;SDS011;54375;48.298;11.238;2022-09-24T10:57:09;8.88;;;5.95;;
50689;SDS011;54375;48.298;11.238;2022-09-24T11:00:18;7.85;;;5.78;;
50689;SDS011;54375;48.298;11.238;2022-09-24T11:03:27;8.77;;;6.47;;
50689;SDS011;54375;48.298;11.238;2022-09-24T11:06:42;8.80;;;6.45;;
50689;SDS011;54375;48.298;11.238;2022-09-24T11:09:53;7.70;;;6.00;;
50689;SDS011;54375;48.298;11.238;2022-09-24T11:13:01;7.88;;;6.03;;
50689;SDS011;54375;48.298;11.238;2022-09-24T11:16:21;8.50;;;6.38;;
50689;SDS011;54375;48.298;11.238;2022-09-24T11:19:44;6.80;;;5.82;;
50689;SDS011;54375;48.298;11.238;2022-09-24T11:26:41;8.90;;;6.18;;
50689;SDS011;54375;48.298;11.238;2022-09-24T11:29:56;9.25;;;6.90;;
50689;SDS011;54375;48.298;11.238;2022-09-24T11:33:10;7.90;;;6.10;;
50689;SDS011;54375;48.298;11.238;2022-09-24T11:36:25;8.13;;;6.13;;
50689;SDS011;54375;48.298;11.238;2022-09-24T11:39:42;11.50;;;6.50;;
50689;SDS011;54375;48.298;11.238;2022-09-24T11:42:59;8.68;;;6.68;;
50689;SDS011;54375;48.298;11.238;2022-09-24T11:46:16;9.75;;;6.30;;
50689;SDS011;54375;48.298;11.238;2022-09-24T11:49:33;8.38;;;6.15;;
50689;SDS011;54375;48.298;11.238;2022-09-24T11:52:46;9.98;;;6.85;;
50689;SDS011;54375;48.298;11.238;2022-09-24T11:55:53;8.52;;;6.30;;
50689;SDS011;54375;48.298;11.238;2022-09-24T11:59:09;8.82;;;6.85;;
50689;SDS011;54375;48.298;11.238;2022-09-24T12:02:16;10.60;;;7.22;;
50689;SDS011;54375;48.298;11.238;2022-09-24T12:05:24;9.00;;;6.68;;
50689;SDS011;54375;48.298;11.238;2022-09-24T12:08:31;11.38;;;7.90;;
50689;SDS011;54375;48.298;11.238;2022-09-24T12:11:38;46.22;;;23.30;;
50689;SDS011;54375;48.298;11.238;2022-09-24T12:14:47;23.45;;;12.70;;
50689;SDS011;54375;48.298;11.238;2022-09-24T12:17:53;10.82;;;7.70;;
50689;SDS011;54375;48.298;11.238;2022-09-24T12:20:58;11.18;;;7.03;;
50689;SDS011;54375;48.298;11.238;2022-09-24T12:24:01;11.80;;;7.20;;
50689;SDS011;54375;48.298;11.238;2022-09-24T12:27:06;11.50;;;7.97;;
50689;SDS011;54375;48.298;11.238;2022-09-24T12:30:23;11.45;;;7.80;;
50689;SDS011;54375;48.298;11.238;2022-09-24T12:33:31;11.55;;;8.68;;
50689;SDS011;54375;48.298;11.238;2022-09-24T12:36:41;11.98;;;8.00;;
50689;SDS011;54375;48.298;11.238;2022-09-24T12:39:56;12.82;;;9.00;;
50689;SDS011;54375;48.298;11.238;2022-09-24T12:43:04;11.98;;;8.02;;
50689;SDS011;54375;48.298;11.238;2022-09-24T12:46:15;10.30;;;7.60;;
50689;SDS011;54375;48.298;11.238;2022-09-24T12:49:22;12.70;;;8.00;;
50689;SDS011;54375;48.298;11.238;2022-09-24T12:52:30;12.95;;;8.40;;
50689;SDS011;54375;48.298;11.238;2022-09-24T12:55:34;14.02;;;9.05;;
50689;SDS011;54375;48.298;11.238;2022-09-24T12:58:35;11.30;;;6.95;;
50689;SDS011;54375;48.298;11.238;2022-09-24T13:01:39;13.50;;;8.27;;
50689;SDS011;54375;48.298;11.238;2022-09-24T13:04:42;12.98;;;8.02;;
50689;SDS011;54375;48.298;11.238;2022-09-24T13:07:56;10.20;;;7.88;;
50689;SDS011;54375;48.298;11.238;2022-09-24T13:10:58;11.20;;;7.80;;
50689;SDS011;54375;48.298;11.238;2022-09-24T13:14:03;14.10;;;8.30;;
50689;SDS011;54375;48.298;11.238;2022-09-24T13:17:18;12.93;;;8.30;;
50689;SDS011;54375;48.298;11.238;2022-09-24T13:20:22;10.65;;;6.90;;
50689;SDS011;54375;48.298;11.238;2022-09-24T13:23:31;10.25;;;7.03;;
50689;SDS011;54375;48.298;11.238;2022-09-24T13:26:53;9.55;;;6.97;;
50689;SDS011;54375;48.298;11.238;2022-09-24T13:30:05;9.30;;;6.93;;
50689;SDS011;54375;48.298;11.238;2022-09-24T13:33:19;8.85;;;6.68;;
50689;SDS011;54375;48.298;11.238;2022-09-24T13:36:26;8.85;;;6.60;;
50689;SDS011;54375;48.298;11.238;2022-09-24T13:39:33;10.77;;;7.72;;
50689;SDS011;54375;48.298;11.238;2022-09-24T13:42:42;9.00;;;6.25;;
50689;SDS011;54375;48.298;11.238;2022-09-24T13:45:46;13.35;;;7.57;;
50689;SDS011;54375;48.298;11.238;2022-09-24T13:48:50;9.57;;;6.95;;
50689;SDS011;54375;48.298;11.238;2022-09-24T13:51:56;12.65;;;6.95;;
50689;SDS011;54375;48.298;11.238;2022-09-24T13:55:15;9.90;;;7.05;;
50689;SDS011;54375;48.298;11.238;2022-09-24T13:58:25;9.82;;;6.75;;
50689;SDS011;54375;48.298;11.238;2022-09-24T14:01:27;8.27;;;6.60;;
50689;SDS011;54375;48.298;11.238;2022-09-24T14:04:30;8.88;;;6.43;;
50689;SDS011;54375;48.298;11.238;2022-09-24T14:07:32;8.63;;;6.00;;
50689;SDS011;54375;48.298;11.238;2022-09-24T14:10:33;7.33;;;5.70;;
50689;SDS011;54375;48.298;11.238;2022-09-24T14:13:34;7.95;;;5.65;;
50689;SDS011;54375;48.298;11.238;2022-09-24T14:16:35;8.40;;;5.53;;
50689;SDS011;54375;48.298;11.238;2022-09-24T14:19:37;9.33;;;6.60;;
50689;SDS011;54375;48.298;11.238;2022-09-24T14:22:38;8.18;;;6.03;;
50689;SDS011;54375;48.298;11.238;2022-09-24T14:25:42;10.40;;;5.55;;
50689;SDS011;54375;48.298;11.238;2022-09-24T14:28:43;7.05;;;5.07;;
50689;SDS011;54375;48.298;11.238;2022-09-24T14:31:44;9.18;;;5.90;;
50689;SDS011;54375;48.298;11.238;2022-09-24T14:34:49;10.70;;;6.68;;
50689;SDS011;54375;48.298;11.238;2022-09-24T14:37:52;12.55;;;6.22;;
50689;SDS011;54375;48.298;11.238;2022-09-24T14:40:57;9.27;;;6.18;;
50689;SDS011;54375;48.298;11.238;2022-09-24T14:44:01;9.50;;;6.90;;
50689;SDS011;54375;48.298;11.238;2022-09-24T14:47:18;9.48;;;6.53;;
50689;SDS011;54375;48.298;11.238;2022-09-24T14:50:32;8.23;;;5.05;;
50689;SDS011;54375;48.298;11.238;2022-09-24T14:53:37;8.27;;;5.03;;
50689;SDS011;54375;48.298;11.238;2022-09-24T14:56:37;6.93;;;4.50;;
50689;SDS011;54375;48.298;11.238;2022-09-24T14:59:38;9.47;;;5.60;;
50689;SDS011;54375;48.298;11.238;2022-09-24T15:02:39;11.50;;;7.20;;
50689;SDS011;54375;48.298;11.238;2022-09-24T15:05:41;12.10;;;6.17;;
50689;SDS011;54375;48.298;11.238;2022-09-24T15:08:43;10.38;;;6.38;;
50689;SDS011;54375;48.298;11.238;2022-09-24T15:11:50;8.85;;;5.93;;
50689;SDS011;54375;48.298;11.238;2022-09-24T15:14:52;11.90;;;6.22;;
50689;SDS011;54375;48.298;11.238;2022-09-24T15:17:54;7.80;;;5.50;;
50689;SDS011;54375;48.298;11.238;2022-09-24T15:20:56;8.97;;;5.23;;
50689;SDS011;54375;48.298;11.238;2022-09-24T15:23:57;8.23;;;5.53;;
50689;SDS011;54375;48.298;11.238;2022-09-24T15:26:59;11.73;;;7.27;;
50689;SDS011;54375;48.298;11.238;2022-09-24T15:30:02;8.00;;;5.60;;
50689;SDS011;54375;48.298;11.238;2022-09-24T15:33:07;10.15;;;7.28;;
50689;SDS011;54375;48.298;11.238;2022-09-24T15:36:12;8.02;;;5.32;;
50689;SDS011;54375;48.298;11.238;2022-09-24T15:39:13;6.75;;;5.35;;
50689;SDS011;54375;48.298;11.238;2022-09-24T15:42:15;7.63;;;5.22;;
50689;SDS011;54375;48.298;11.238;2022-09-24T15:45:17;7.43;;;4.90;;
50689;SDS011;54375;48.298;11.238;2022-09-24T15:48:18;8.60;;;5.85;;
50689;SDS011;54375;48.298;11.238;2022-09-24T15:51:21;8.27;;;5.60;;
50689;SDS011;54375;48.298;11.238;2022-09-24T15:54:22;8.23;;;5.72;;
50689;SDS011;54375;48.298;11.238;2022-09-24T15:57:23;7.57;;;5.00;;
50689;SDS011;54375;48.298;11.238;2022-09-24T16:00:24;6.63;;;4.83;;
50689;SDS011;54375;48.298;11.238;2022-09-24T16:03:26;8.15;;;5.43;;
50689;SDS011;54375;48.298;11.238;2022-09-24T16:06:29;7.45;;;4.80;;
50689;SDS011;54375;48.298;11.238;2022-09-24T16:09:30;7.88;;;5.68;;
50689;SDS011;54375;48.298;11.238;2022-09-24T16:12:31;8.27;;;5.40;;
50689;SDS011;54375;48.298;11.238;2022-09-24T16:15:32;9.40;;;6.27;;
50689;SDS011;54375;48.298;11.238;2022-09-24T16:18:33;10.93;;;6.80;;
50689;SDS011;54375;48.298;11.238;2022-09-24T16:21:35;9.27;;;6.57;;
50689;SDS011;54375;48.298;11.238;2022-09-24T16:24:35;8.30;;;6.20;;
50689;SDS011;54375;48.298;11.238;2022-09-24T16:27:36;8.63;;;6.40;;
50689;SDS011;54375;48.298;11.238;2022-09-24T16:30:37;8.57;;;6.43;;
50689;SDS011;54375;48.298;11.238;2022-09-24T16:33:38;9.03;;;6.27;;
50689;SDS011;54375;48.298;11.238;2022-09-24T16:36:40;9.37;;;5.60;;
50689;SDS011;54375;48.298;11.238;2022-09-24T16:39:41;8.82;;;6.10;;
50689;SDS011;54375;48.298;11.238;2022-09-24T16:42:41;11.13;;;7.60;;
50689;SDS011;54375;48.298;11.238;2022-09-24T16:45:42;13.40;;;9.70;;
50689;SDS011;54375;48.298;11.238;2022-09-24T16:48:47;29.00;;;18.02;;
50689;SDS011;54375;48.298;11.238;2022-09-24T16:51:49;20.55;;;14.75;;
50689;SDS011;54375;48.298;11.238;2022-09-24T16:54:50;19.35;;;13.43;;
50689;SDS011;54375;48.298;11.238;2022-09-24T16:57:51;16.93;;;12.07;;
50689;SDS011;54375;48.298;11.238;2022-09-24T17:00:51;13.20;;;9.70;;
50689;SDS011;54375;48.298;11.238;2022-09-24T17:03:53;12.20;;;8.40;;
50689;SDS011;54375;48.298;11.238;2022-09-24T17:06:56;15.80;;;9.93;;
50689;SDS011;54375;48.298;11.238;2022-09-24T17:09:57;13.90;;;9.70;;
50689;SDS011;54375;48.298;11.238;2022-09-24T17:12:58;12.38;;;9.25;;
50689;SDS011;54375;48.298;11.238;2022-09-24T17:15:59;12.33;;;9.63;;
50689;SDS011;54375;48.298;11.238;2022-09-24T17:19:00;12.05;;;8.10;;
50689;SDS011;54375;48.298;11.238;2022-09-24T17:22:02;10.60;;;7.70;;
50689;SDS011;54375;48.298;11.238;2022-09-24T17:25:03;9.70;;;6.93;;
50689;SDS011;54375;48.298;11.238;2022-09-24T17:28:05;12.07;;;8.18;;
50689;SDS011;54375;48.298;11.238;2022-09-24T17:31:06;10.20;;;7.80;;
50689;SDS011;54375;48.298;11.238;2022-09-24T17:34:09;11.23;;;8.05;;
50689;SDS011;54375;48.298;11.238;2022-09-24T17:37:11;20.60;;;13.18;;
50689;SDS011;54375;48.298;11.238;2022-09-24T17:40:12;25.42;;;15.00;;
50689;SDS011;54375;48.298;11.238;2022-09-24T17:43:12;26.40;;;15.57;;
50689;SDS011;54375;48.298;11.238;2022-09-24T17:46:14;23.17;;;13.17;;
50689;SDS011;54375;48.298;11.238;2022-09-24T17:49:15;18.15;;;11.40;;
50689;SDS011;54375;48.298;11.238;2022-09-24T17:52:17;13.73;;;8.77;;
50689;SDS011;54375;48.298;11.238;2022-09-24T17:55:18;10.48;;;7.07;;
50689;SDS011;54375;48.298;11.238;2022-09-24T17:58:19;9.37;;;6.57;;
50689;SDS011;54375;48.298;11.238;2022-09-24T18:01:21;11.45;;;6.93;;
50689;SDS011;54375;48.298;11.238;2022-09-24T18:04:23;8.95;;;6.63;;
50689;SDS011;54375;48.298;11.238;2022-09-24T18:07:25;10.47;;;6.77;;
50689;SDS011;54375;48.298;11.238;2022-09-24T18:10:26;12.65;;;7.63;;
50689;SDS011;54375;48.298;11.238;2022-09-24T18:13:27;11.33;;;7.93;;
50689;SDS011;54375;48.298;11.238;2022-09-24T18:16:28;11.90;;;8.73;;
50689;SDS011;54375;48.298;11.238;2022-09-24T18:19:30;11.77;;;8.20;;
50689;SDS011;54375;48.298;11.238;2022-09-24T18:22:33;11.47;;;7.47;;
50689;SDS011;54375;48.298;11.238;2022-09-24T18:25:33;12.40;;;8.13;;
50689;SDS011;54375;48.298;11.238;2022-09-24T18:28:35;9.10;;;6.70;;
50689;SDS011;54375;48.298;11.238;2022-09-24T18:31:36;9.02;;;6.78;;
50689;SDS011;54375;48.298;11.238;2022-09-24T18:34:38;8.85;;;5.55;;
50689;SDS011;54375;48.298;11.238;2022-09-24T18:37:40;9.43;;;6.27;;